METAR Data
IDs: Format: Raw Decoded Include TAF

Data at: 0742 UTC 01 Aug 2021

ULLI 010730Z 13004MPS 100V160 9999 FEW006 SCT033CB 17/15 Q1002 R88/290350 NOSIG RMK OBST OBSC